Time;durP1;ratioP1;P1;durP2;ratioP2;P2;SDS_P1;SDS_P2;PMS_P1;PMS_P2;Temp;Humidity;BMP_temperature;BMP_pressure;BME280_temperature;BME280_humidity;BME280_pressure;Samples;Min_cycle;Max_cycle;Signal;HPM_P1;HPM_P2
2023/06/17 00:01:17;;;;;;;8.90;4.40;;;;;;;26.02;47.20;99779.66;108038;1286;21996;-62
2023/06/17 00:03:44;;;;;;;8.10;4.40;;;;;;;26.01;47.29;99777.45;108133;1289;22463;-61
2023/06/17 00:06:10;;;;;;;7.40;4.50;;;;;;;26.00;47.37;99774.80;108061;1282;21982;-60
2023/06/17 00:08:36;;;;;;;12.10;4.30;;;;;;;26.00;47.49;99773.58;107989;1289;22196;-63
2023/06/17 00:11:02;;;;;;;6.20;4.40;;;;;;;25.99;47.55;99772.75;107976;1283;21994;-60
2023/06/17 00:13:28;;;;;;;10.50;4.30;;;;;;;25.99;47.76;99768.09;108054;1289;21999;-61
2023/06/17 00:15:59;;;;;;;8.10;4.30;;;;;;;26.00;47.93;99768.75;107993;1287;21999;-78
2023/06/17 00:18:24;;;;;;;6.70;4.20;;;;;;;26.00;47.94;99768.21;108114;1277;21995;-77
2023/06/17 00:20:53;;;;;;;7.60;4.50;;;;;;;26.00;48.20;99766.20;108105;1287;21998;-75
2023/06/17 00:23:23;;;;;;;9.30;4.90;;;;;;;25.98;48.28;99768.69;108173;1288;22047;-59
2023/06/17 00:25:49;;;;;;;7.00;3.90;;;;;;;25.94;48.26;99766.34;108041;1283;21988;-77
2023/06/17 00:28:15;;;;;;;8.20;5.40;;;;;;;25.92;48.24;99763.83;108016;1282;21978;-75
2023/06/17 00:30:42;;;;;;;8.60;4.20;;;;;;;25.90;48.35;99763.27;108037;1286;22024;-77
2023/06/17 00:33:08;;;;;;;7.90;4.40;;;;;;;25.89;48.31;99758.73;107671;1280;21997;-77
2023/06/17 00:35:34;;;;;;;6.30;4.20;;;;;;;25.86;48.34;99759.31;107983;1289;22467;-60
2023/06/17 00:38:01;;;;;;;10.10;5.10;;;;;;;25.85;48.54;99758.65;107949;1288;22006;-78
2023/06/17 00:40:26;;;;;;;6.10;4.10;;;;;;;25.84;48.52;99752.78;108014;1289;22001;-76
2023/06/17 00:42:52;;;;;;;10.20;4.10;;;;;;;25.82;48.55;99751.04;108026;1280;21990;-77
2023/06/17 00:45:18;;;;;;;10.10;4.90;;;;;;;25.77;48.57;99753.26;108000;1289;21989;-77
2023/06/17 00:47:44;;;;;;;8.90;4.60;;;;;;;25.73;48.74;99753.21;107971;1288;21995;-77
2023/06/17 00:50:12;;;;;;;11.00;4.70;;;;;;;25.70;48.91;99751.33;107802;1286;22010;-61
2023/06/17 00:52:42;;;;;;;6.20;4.10;;;;;;;25.65;48.98;99749.23;108043;1282;23615;-60
2023/06/17 00:55:08;;;;;;;6.90;4.50;;;;;;;25.62;48.99;99748.92;108033;1279;22031;-77
2023/06/17 00:57:35;;;;;;;9.50;4.70;;;;;;;25.61;49.01;99745.48;108159;1277;21987;-59
2023/06/17 01:00:01;;;;;;;9.80;4.50;;;;;;;25.59;49.73;99750.50;108162;1283;22049;-78
2023/06/17 01:02:27;;;;;;;9.20;4.30;;;;;;;25.55;49.77;99749.02;108109;1282;23296;-60
2023/06/17 01:04:53;;;;;;;10.00;4.30;;;;;;;25.54;49.77;99750.02;108137;1283;21984;-77
2023/06/17 01:07:35;;;;;;;7.50;4.00;;;;;;;25.52;49.42;99747.13;108084;1286;21997;-60
2023/06/17 01:10:27;;;;;;;8.00;4.50;;;;;;;25.51;49.54;99746.67;108126;1278;21998;-59
2023/06/17 01:12:53;;;;;;;8.60;4.60;;;;;;;25.50;49.83;99748.92;108119;1286;21990;-60
2023/06/17 01:15:19;;;;;;;7.50;4.10;;;;;;;25.47;49.71;99746.13;108114;1288;23647;-62
2023/06/17 01:17:45;;;;;;;8.30;4.30;;;;;;;25.43;49.71;99744.07;108120;1282;21957;-77
2023/06/17 01:20:15;;;;;;;7.60;4.20;;;;;;;25.41;49.91;99741.02;107962;1283;23699;-60
2023/06/17 01:22:41;;;;;;;7.70;4.40;;;;;;;25.39;50.41;99739.88;108062;1288;22009;-60
2023/06/17 01:25:08;;;;;;;7.70;4.40;;;;;;;25.36;50.55;99740.66;107886;1282;21984;-59
2023/06/17 01:27:35;;;;;;;9.90;4.30;;;;;;;25.20;50.88;99742.44;108115;1282;22850;-79
2023/06/17 01:30:01;;;;;;;8.50;4.30;;;;;;;25.10;50.58;99741.59;108153;1283;21987;-79
2023/06/17 01:32:27;;;;;;;6.60;4.10;;;;;;;25.15;50.34;99736.66;108114;1277;22172;-77
2023/06/17 01:35:02;;;;;;;8.60;4.30;;;;;;;25.20;50.07;99736.10;107995;1283;22461;-79
2023/06/17 01:37:48;;;;;;;11.10;4.40;;;;;;;25.18;50.29;99736.32;108204;1286;21992;-80
2023/06/17 01:40:15;;;;;;;7.10;4.60;;;;;;;25.07;50.82;99738.79;108137;1288;21998;-60
2023/06/17 01:42:44;;;;;;;10.20;4.30;;;;;;;24.73;51.78;99738.16;108126;1279;21993;-61
2023/06/17 01:45:09;;;;;;;13.50;4.90;;;;;;;24.63;52.01;99740.77;108119;1288;22274;-61
2023/06/17 01:47:35;;;;;;;8.40;3.90;;;;;;;24.83;51.25;99737.39;107840;1288;21989;-78
2023/06/17 01:50:03;;;;;;;10.70;4.00;;;;;;;24.88;50.60;99734.13;107732;1282;21988;-79
2023/06/17 01:52:29;;;;;;;7.20;4.20;;;;;;;24.79;50.63;99731.39;108181;1283;21992;-61
2023/06/17 01:54:56;;;;;;;8.70;4.70;;;;;;;24.71;50.90;99731.73;108093;1286;22086;-78
2023/06/17 01:57:21;;;;;;;8.60;4.00;;;;;;;24.68;51.00;99734.45;108157;1277;21997;-61
2023/06/17 01:59:47;;;;;;;10.50;5.10;;;;;;;24.59;51.51;99734.77;108223;1287;22000;-61
2023/06/17 02:02:12;;;;;;;8.70;4.20;;;;;;;24.63;51.63;99734.12;108151;1286;21953;-78
2023/06/17 02:04:38;;;;;;;9.70;4.50;;;;;;;24.61;52.03;99735.70;108141;1276;21989;-61
2023/06/17 02:07:04;;;;;;;9.00;4.60;;;;;;;24.58;52.38;99737.55;108153;1288;21996;-62
2023/06/17 02:09:30;;;;;;;9.30;4.20;;;;;;;24.56;52.37;99740.43;108155;1279;21989;-77
2023/06/17 02:11:55;;;;;;;9.10;4.30;;;;;;;24.62;52.25;99739.77;108105;1283;22455;-60
2023/06/17 02:14:21;;;;;;;9.30;4.70;;;;;;;24.63;52.22;99741.42;108180;1280;22750;-77
2023/06/17 02:16:47;;;;;;;8.70;4.70;;;;;;;24.64;52.28;99743.21;108100;1287;21968;-62
2023/06/17 02:19:15;;;;;;;8.30;4.80;;;;;;;24.66;52.46;99741.98;108194;1288;22027;-78
2023/06/17 02:21:43;;;;;;;8.10;5.10;;;;;;;24.68;52.38;99742.50;108163;1286;21998;-78
2023/06/17 02:24:09;;;;;;;10.30;5.00;;;;;;;24.70;52.65;99742.15;108135;1288;22000;-61
2023/06/17 02:26:36;;;;;;;9.60;4.80;;;;;;;24.71;52.57;99745.86;108172;1283;24312;-78
2023/06/17 02:29:03;;;;;;;9.80;4.50;;;;;;;24.72;52.53;99750.11;107998;1286;177082;-61
2023/06/17 02:31:28;;;;;;;8.50;5.00;;;;;;;24.74;52.71;99751.74;108134;1288;21992;-61
2023/06/17 02:33:55;;;;;;;9.80;4.80;;;;;;;24.74;52.87;99750.45;108164;1276;21995;-78
2023/06/17 02:36:21;;;;;;;9.50;4.60;;;;;;;24.75;53.00;99752.05;108152;1283;21987;-61
2023/06/17 02:38:50;;;;;;;9.30;4.80;;;;;;;24.75;52.90;99754.52;108136;1276;21997;-77
2023/06/17 02:41:16;;;;;;;11.30;4.90;;;;;;;24.74;53.17;99756.96;107926;1288;21990;-78
2023/06/17 02:43:41;;;;;;;8.20;5.30;;;;;;;24.77;53.15;99756.88;108099;1276;21992;-78
2023/06/17 02:46:08;;;;;;;9.50;4.90;;;;;;;24.79;53.21;99758.46;108095;1280;21990;-77
2023/06/17 02:48:34;;;;;;;16.90;5.20;;;;;;;24.83;53.32;99755.84;108131;1283;21987;-60
2023/06/17 02:50:59;;;;;;;17.30;5.20;;;;;;;25.00;53.23;99758.36;108100;1282;22469;-60
2023/06/17 02:53:25;;;;;;;11.60;5.20;;;;;;;25.27;53.46;99759.98;108191;1279;21984;-79
2023/06/17 02:55:53;;;;;;;11.40;5.30;;;;;;;25.49;53.38;99764.05;108134;1286;23612;-76
2023/06/17 02:58:19;;;;;;;12.40;4.80;;;;;;;25.62;52.84;99766.39;108135;1278;23715;-71
2023/06/17 03:00:46;;;;;;;17.60;5.90;;;;;;;25.71;52.93;99762.60;108152;1286;22008;-75
2023/06/17 03:03:12;;;;;;;25.70;6.50;;;;;;;25.80;52.58;99763.45;108184;1279;21989;-60
2023/06/17 03:05:38;;;;;;;19.10;5.90;;;;;;;25.83;52.30;99766.19;108199;1282;21990;-61
2023/06/17 03:08:05;;;;;;;21.10;5.50;;;;;;;25.84;52.13;99763.22;108127;1277;21992;-75
2023/06/17 03:10:32;;;;;;;17.70;8.20;;;;;;;25.86;52.13;99759.54;108167;1283;22037;-61
2023/06/17 03:13:00;;;;;;;10.30;5.50;;;;;;;25.87;52.09;99758.87;108128;1278;21976;-61
2023/06/17 03:15:26;;;;;;;16.30;5.30;;;;;;;25.86;52.38;99759.99;108142;1286;23729;-60
2023/06/17 03:17:52;;;;;;;12.70;5.20;;;;;;;25.86;52.49;99761.83;108151;1286;21992;-60
2023/06/17 03:20:18;;;;;;;9.60;5.40;;;;;;;25.78;52.92;99764.80;108176;1280;22083;-77
2023/06/17 03:22:44;;;;;;;13.80;5.20;;;;;;;25.77;53.23;99767.11;108179;1283;22455;-76
2023/06/17 03:25:10;;;;;;;9.20;5.00;;;;;;;25.87;52.96;99764.21;108197;1282;21994;-77
2023/06/17 03:27:36;;;;;;;11.30;5.30;;;;;;;25.94;52.97;99764.94;108195;1282;21988;-61
2023/06/17 03:30:03;;;;;;;10.10;5.20;;;;;;;25.99;53.10;99763.92;108233;1286;21995;-60
2023/06/17 03:32:29;;;;;;;11.00;5.00;;;;;;;26.04;53.02;99764.75;108323;1283;21992;-60
2023/06/17 03:34:57;;;;;;;7.50;4.70;;;;;;;26.09;53.08;99761.27;108382;1286;22425;-60
2023/06/17 03:37:23;;;;;;;11.70;5.00;;;;;;;26.14;53.12;99761.64;108382;1288;21999;-75
2023/06/17 03:39:49;;;;;;;7.10;5.10;;;;;;;26.18;53.11;99760.19;108073;1288;23788;-76
2023/06/17 03:42:16;;;;;;;8.40;5.00;;;;;;;26.23;53.12;99757.91;108135;1282;21989;-75
2023/06/17 03:44:42;;;;;;;9.60;5.00;;;;;;;26.31;53.02;99758.11;108127;1286;22022;-60
2023/06/17 03:47:07;;;;;;;10.70;4.90;;;;;;;26.40;53.25;99759.11;108101;1277;22008;-61
2023/06/17 03:49:33;;;;;;;13.50;5.00;;;;;;;26.60;53.23;99763.52;108141;1279;21991;-61
2023/06/17 03:51:58;;;;;;;16.20;4.70;;;;;;;26.87;53.05;99762.23;108140;1288;21999;-75
2023/06/17 03:54:25;;;;;;;11.30;4.70;;;;;;;27.11;52.64;99760.59;108095;1279;22459;-74
2023/06/17 03:56:50;;;;;;;9.70;4.50;;;;;;;27.32;52.34;99760.80;108116;1282;22027;-75
2023/06/17 03:59:16;;;;;;;12.20;5.20;;;;;;;27.47;52.23;99758.86;108104;1282;22009;-61
2023/06/17 04:01:42;;;;;;;12.70;4.40;;;;;;;27.49;51.77;99759.29;108125;1288;21997;-63
2023/06/17 04:04:08;;;;;;;10.20;4.10;;;;;;;27.46;51.67;99760.04;108117;1285;21995;-72
2023/06/17 04:06:35;;;;;;;8.50;4.40;;;;;;;27.44;51.36;99757.36;108233;1280;21982;-61
2023/06/17 04:09:02;;;;;;;9.40;4.50;;;;;;;27.43;51.36;99757.83;108149;1287;21981;-61
2023/06/17 04:11:30;;;;;;;8.20;4.20;;;;;;;27.43;51.46;99760.84;108142;1278;22029;-73
2023/06/17 04:13:56;;;;;;;8.40;4.30;;;;;;;27.43;51.28;99764.62;108169;1286;23767;-74
2023/06/17 04:16:22;;;;;;;9.30;4.20;;;;;;;27.47;51.44;99765.73;108119;1277;21995;-61
2023/06/17 04:18:48;;;;;;;6.40;4.20;;;;;;;27.47;51.62;99764.45;108103;1282;21997;-73
2023/06/17 04:21:14;;;;;;;8.00;4.10;;;;;;;27.59;51.91;99764.81;108112;1288;21999;-62
2023/06/17 04:23:40;;;;;;;9.90;5.00;;;;;;;27.72;52.09;99764.67;108144;1286;21995;-61
2023/06/17 04:26:06;;;;;;;7.40;4.20;;;;;;;27.89;52.39;99760.73;108111;1288;22017;-74
2023/06/17 04:28:32;;;;;;;14.20;4.20;;;;;;;28.10;52.44;99760.73;108135;1283;22000;-74
2023/06/17 04:31:00;;;;;;;9.40;3.80;;;;;;;28.32;51.99;99761.72;108130;1283;23655;-73
2023/06/17 04:33:27;;;;;;;6.40;3.60;;;;;;;28.53;51.74;99758.27;108211;1286;23100;-61
2023/06/17 04:35:53;;;;;;;6.10;3.20;;;;;;;28.75;51.71;99758.98;108170;1277;21987;-61
2023/06/17 04:38:20;;;;;;;6.80;4.10;;;;;;;29.00;51.54;99757.45;108185;1276;22959;-61
2023/06/17 04:40:46;;;;;;;9.50;4.50;;;;;;;29.23;50.93;99756.85;108133;1279;21987;-73
2023/06/17 04:43:12;;;;;;;5.20;3.50;;;;;;;29.42;50.26;99755.48;108162;1287;22027;-74
2023/06/17 04:45:39;;;;;;;5.80;4.20;;;;;;;29.58;49.93;99755.60;108173;1282;21992;-62
2023/06/17 04:48:05;;;;;;;7.90;3.70;;;;;;;29.78;49.92;99756.73;108186;1280;21990;-74
2023/06/17 04:50:33;;;;;;;6.40;3.40;;;;;;;29.97;49.75;99756.02;108159;1287;24331;-74
2023/06/17 04:53:03;;;;;;;9.80;3.80;;;;;;;30.16;49.35;99756.04;108152;1280;21990;-61
2023/06/17 04:55:30;;;;;;;7.00;4.70;;;;;;;30.32;48.99;99759.58;108138;1280;22029;-62
2023/06/17 04:57:56;;;;;;;6.10;3.90;;;;;;;30.46;48.55;99758.73;108146;1286;23627;-70
2023/06/17 05:00:22;;;;;;;6.90;3.40;;;;;;;30.59;48.27;99759.46;107863;1286;21997;-73
2023/06/17 05:02:48;;;;;;;8.30;3.80;;;;;;;30.75;48.06;99762.90;108131;1283;21987;-62
2023/06/17 05:05:13;;;;;;;7.80;3.30;;;;;;;30.91;47.79;99768.24;108085;1286;22001;-62
2023/06/17 05:07:39;;;;;;;6.40;3.50;;;;;;;31.07;47.17;99768.89;108123;1277;22040;-71
2023/06/17 05:10:07;;;;;;;7.30;3.60;;;;;;;31.13;47.24;99768.77;108159;1288;22064;-73
2023/06/17 05:12:32;;;;;;;9.30;3.90;;;;;;;31.27;46.70;99773.77;108112;1286;21990;-63
2023/06/17 05:14:59;;;;;;;7.80;3.70;;;;;;;31.40;46.25;99776.00;108122;1288;21992;-63
2023/06/17 05:17:24;;;;;;;6.80;4.00;;;;;;;31.50;45.94;99777.23;108092;1282;21991;-62
2023/06/17 05:19:50;;;;;;;6.40;3.50;;;;;;;31.64;45.74;99777.36;108087;1282;21992;-73
2023/06/17 05:22:15;;;;;;;6.80;3.50;;;;;;;31.82;45.57;99778.31;108128;1288;21993;-62
2023/06/17 05:24:41;;;;;;;5.90;3.70;;;;;;;32.00;45.36;99776.69;108117;1288;21992;-62
2023/06/17 05:27:08;;;;;;;5.60;3.50;;;;;;;32.17;45.20;99778.96;108136;1286;21994;-62
2023/06/17 05:29:34;;;;;;;9.60;3.90;;;;;;;32.33;44.75;99781.27;107881;1282;22000;-71
2023/06/17 05:31:59;;;;;;;9.40;3.50;;;;;;;32.44;44.65;99784.16;108150;1288;21992;-72
2023/06/17 05:34:25;;;;;;;7.70;3.90;;;;;;;32.63;44.67;99789.19;108088;1288;21990;-62
2023/06/17 05:36:51;;;;;;;5.60;3.30;;;;;;;32.81;44.22;99792.55;108102;1284;21990;-62
2023/06/17 05:39:16;;;;;;;5.00;3.70;;;;;;;32.93;43.94;99793.70;108140;1277;21997;-63
2023/06/17 05:41:42;;;;;;;7.30;4.70;;;;;;;33.10;43.76;99795.05;108164;1282;21953;-64
2023/06/17 05:44:08;;;;;;;8.10;3.70;;;;;;;33.22;43.32;99799.11;108116;1277;22276;-71
2023/06/17 05:46:34;;;;;;;7.90;3.60;;;;;;;33.34;43.38;99799.79;108113;1288;21997;-71
2023/06/17 05:49:00;;;;;;;7.80;3.90;;;;;;;33.53;43.28;99801.64;108113;1283;21990;-63
2023/06/17 05:51:27;;;;;;;8.00;3.80;;;;;;;33.72;42.95;99802.00;108153;1288;21994;-62
2023/06/17 05:53:53;;;;;;;7.00;4.10;;;;;;;33.92;42.84;99796.46;108171;1288;21987;-64
2023/06/17 05:56:19;;;;;;;8.70;3.90;;;;;;;34.13;42.47;99801.02;108101;1288;21997;-73
2023/06/17 05:58:45;;;;;;;9.60;4.30;;;;;;;34.27;41.91;99801.73;108113;1279;21995;-71
2023/06/17 06:01:11;;;;;;;6.70;3.80;;;;;;;34.40;41.45;99801.27;108134;1277;21988;-62
2023/06/17 06:03:37;;;;;;;7.30;3.50;;;;;;;34.55;41.29;99798.48;108153;1283;22448;-62
2023/06/17 06:06:02;;;;;;;6.00;3.30;;;;;;;34.70;41.03;99796.35;107847;1286;22646;-62
2023/06/17 06:08:28;;;;;;;6.40;3.30;;;;;;;34.87;40.92;99798.77;108097;1283;22011;-64
2023/06/17 06:10:54;;;;;;;5.80;3.20;;;;;;;35.04;40.69;99800.00;108140;1280;21961;-62
2023/06/17 06:13:20;;;;;;;7.30;3.30;;;;;;;35.19;40.58;99796.77;108171;1288;22083;-63
2023/06/17 06:15:46;;;;;;;7.30;3.00;;;;;;;35.38;40.40;99795.88;108108;1279;21989;-72
2023/06/17 06:18:13;;;;;;;6.90;3.20;;;;;;;35.57;39.86;99795.99;108135;1286;21995;-62
2023/06/17 06:20:39;;;;;;;6.50;3.60;;;;;;;35.76;39.71;99796.70;107861;1287;21988;-71
2023/06/17 06:23:05;;;;;;;5.00;2.60;;;;;;;35.94;39.49;99794.95;108123;1283;21995;-70
2023/06/17 06:25:30;;;;;;;6.50;3.30;;;;;;;36.11;39.11;99789.08;108137;1288;21988;-62
2023/06/17 06:27:58;;;;;;;6.90;3.20;;;;;;;36.29;39.18;99785.19;108121;1288;21998;-62
2023/06/17 06:30:24;;;;;;;8.30;3.40;;;;;;;36.46;38.77;99781.70;108151;1278;21990;-71
2023/06/17 06:32:50;;;;;;;6.20;2.80;;;;;;;36.59;38.62;99779.48;108179;1288;22024;-71
2023/06/17 06:35:16;;;;;;;5.80;3.10;;;;;;;36.73;38.30;99781.58;107853;1288;21987;-71
2023/06/17 06:37:42;;;;;;;8.80;3.00;;;;;;;36.91;38.15;99778.68;108127;1280;22000;-62
2023/06/17 06:40:08;;;;;;;4.90;2.90;;;;;;;37.12;38.09;99780.81;108122;1286;22025;-70
2023/06/17 06:42:34;;;;;;;7.60;3.40;;;;;;;37.34;37.72;99781.55;108171;1288;22008;-63
2023/06/17 06:44:59;;;;;;;6.00;2.90;;;;;;;37.52;37.60;99780.78;108122;1279;22015;-62
2023/06/17 06:47:25;;;;;;;5.30;2.90;;;;;;;37.71;37.33;99781.29;108154;1286;21990;-70
2023/06/17 06:49:51;;;;;;;5.30;2.90;;;;;;;37.90;36.87;99783.21;108128;1277;21985;-70
2023/06/17 06:52:16;;;;;;;9.30;3.00;;;;;;;38.06;36.66;99774.84;108132;1288;21993;-69
2023/06/17 06:54:42;;;;;;;5.80;3.00;;;;;;;38.21;36.37;99774.08;108173;1288;21992;-62
2023/06/17 06:57:07;;;;;;;7.70;3.00;;;;;;;38.39;36.16;99775.82;108145;1277;21996;-69
2023/06/17 06:59:33;;;;;;;5.30;3.10;;;;;;;38.56;35.84;99776.69;108108;1283;21995;-70
2023/06/17 07:01:58;;;;;;;6.60;3.10;;;;;;;38.74;35.66;99774.19;108105;1288;21998;-70
2023/06/17 07:04:25;;;;;;;6.70;2.90;;;;;;;38.88;35.49;99778.41;108109;1283;21998;-63
2023/06/17 07:06:51;;;;;;;8.30;3.10;;;;;;;39.05;35.34;99779.34;108190;1287;21987;-62
2023/06/17 07:09:17;;;;;;;6.80;2.80;;;;;;;39.24;35.06;99783.52;108152;1283;21987;-62
2023/06/17 07:11:42;;;;;;;5.10;2.50;;;;;;;39.43;34.99;99783.06;108137;1287;21987;-70
2023/06/17 07:14:08;;;;;;;7.60;3.10;;;;;;;39.64;34.47;99786.28;108160;1283;21985;-67
2023/06/17 07:16:34;;;;;;;5.30;2.90;;;;;;;39.75;34.00;99782.42;108133;1287;22025;-63
2023/06/17 07:19:00;;;;;;;5.90;2.80;;;;;;;39.83;34.23;99778.75;108112;1287;21994;-63
2023/06/17 07:21:25;;;;;;;4.50;3.00;;;;;;;39.89;34.11;99777.18;107855;1288;21996;-70
2023/06/17 07:23:51;;;;;;;6.90;2.90;;;;;;;40.03;33.97;99779.88;108093;1288;21995;-63
2023/06/17 07:26:17;;;;;;;5.40;3.00;;;;;;;40.29;33.64;99778.46;108118;1283;22000;-65
2023/06/17 07:28:43;;;;;;;7.50;3.10;;;;;;;40.47;33.36;99773.15;108072;1288;22103;-70
2023/06/17 07:31:09;;;;;;;6.10;3.30;;;;;;;40.65;32.80;99776.49;108160;1287;21987;-63
2023/06/17 07:33:35;;;;;;;5.60;2.60;;;;;;;40.75;32.64;99778.59;108101;1279;21997;-62
2023/06/17 07:36:00;;;;;;;9.90;3.30;;;;;;;40.84;32.36;99770.19;108115;1283;22111;-69
2023/06/17 07:38:26;;;;;;;5.80;3.10;;;;;;;40.90;32.16;99769.66;108114;1287;22014;-62
2023/06/17 07:40:52;;;;;;;8.30;3.10;;;;;;;41.01;32.20;99772.16;108134;1288;21992;-70
2023/06/17 07:43:18;;;;;;;4.70;2.90;;;;;;;41.22;31.85;99767.81;108132;1283;21999;-63
2023/06/17 07:45:43;;;;;;;6.40;3.50;;;;;;;41.42;31.71;99764.40;108141;1288;22004;-63
2023/06/17 07:48:09;;;;;;;8.00;3.50;;;;;;;41.61;31.68;99761.45;108147;1288;22021;-68
2023/06/17 07:50:35;;;;;;;5.80;2.80;;;;;;;41.77;31.54;99760.48;108161;1283;22003;-63
2023/06/17 07:53:01;;;;;;;7.80;3.00;;;;;;;41.93;31.13;99759.83;108217;1288;21992;-63
2023/06/17 07:55:28;;;;;;;5.80;3.00;;;;;;;42.08;30.54;99755.73;108197;1287;21987;-63
2023/06/17 07:57:54;;;;;;;8.30;3.70;;;;;;;42.16;30.00;99756.96;108174;1276;22041;-63
2023/06/17 08:00:21;;;;;;;5.70;2.80;;;;;;;42.27;30.44;99756.02;107836;1288;21990;-70
2023/06/17 08:02:47;;;;;;;8.20;2.80;;;;;;;42.43;30.17;99752.61;108176;1287;21994;-70
2023/06/17 08:05:12;;;;;;;5.50;2.70;;;;;;;42.49;29.57;99749.31;108099;1287;22005;-69
2023/06/17 08:07:38;;;;;;;7.00;3.20;;;;;;;42.54;29.72;99753.66;108125;1288;21987;-63
2023/06/17 08:10:05;;;;;;;5.40;2.50;;;;;;;42.68;29.77;99754.87;108077;1288;21986;-63
2023/06/17 08:12:31;;;;;;;7.10;2.60;;;;;;;42.85;29.54;99757.10;107857;1283;23741;-70
2023/06/17 08:14:57;;;;;;;7.40;2.60;;;;;;;43.03;29.34;99760.06;108164;1283;21988;-69
2023/06/17 08:17:22;;;;;;;4.40;2.70;;;;;;;43.20;29.26;99760.94;108154;1288;21986;-63
2023/06/17 08:19:48;;;;;;;7.40;2.70;;;;;;;43.31;28.98;99753.98;108128;1283;21988;-63
2023/06/17 08:22:14;;;;;;;4.60;2.70;;;;;;;43.44;28.76;99753.98;108151;1282;22010;-71
2023/06/17 08:24:39;;;;;;;6.30;3.10;;;;;;;43.55;28.63;99760.02;108139;1287;21997;-63
2023/06/17 08:27:06;;;;;;;5.40;2.40;;;;;;;43.63;28.13;99761.25;108129;1281;21983;-64
2023/06/17 08:29:31;;;;;;;5.80;2.90;;;;;;;43.52;27.82;99760.64;108145;1288;21990;-64
2023/06/17 08:31:57;;;;;;;5.70;2.40;;;;;;;43.47;27.91;99762.68;108136;1275;21990;-64
2023/06/17 08:34:22;;;;;;;4.70;2.60;;;;;;;43.56;27.81;99768.23;108119;1276;22000;-63
2023/06/17 08:36:52;;;;;;;6.00;2.50;;;;;;;43.64;27.51;99762.39;108157;1283;22028;-64
2023/06/17 08:39:18;;;;;;;4.10;2.40;;;;;;;43.75;27.56;99762.13;108153;1288;22049;-71
2023/06/17 08:41:43;;;;;;;4.40;2.30;;;;;;;43.92;27.10;99757.70;108169;1288;21985;-63
2023/06/17 08:44:11;;;;;;;4.70;2.70;;;;;;;44.06;27.24;99756.04;107941;1288;21987;-64
2023/06/17 08:46:38;;;;;;;4.90;2.60;;;;;;;44.17;27.33;99753.69;108117;1288;21990;-70
2023/06/17 08:49:04;;;;;;;7.00;2.80;;;;;;;44.33;27.10;99754.75;108156;1288;22007;-64
2023/06/17 08:51:30;;;;;;;8.80;2.80;;;;;;;44.49;26.74;99749.30;108184;1288;21963;-71
2023/06/17 08:53:56;;;;;;;5.00;2.50;;;;;;;44.68;26.39;99749.80;108205;1286;21989;-63
2023/06/17 08:56:22;;;;;;;6.00;3.00;;;;;;;44.87;26.22;99749.51;108183;1279;21982;-65
2023/06/17 08:58:49;;;;;;;5.30;3.30;;;;;;;45.01;26.10;99753.86;108176;1280;21953;-64
2023/06/17 09:01:16;;;;;;;4.90;2.60;;;;;;;45.12;25.82;99752.40;108209;1280;21986;-64
2023/06/17 09:03:42;;;;;;;6.10;2.60;;;;;;;45.17;25.41;99749.50;107887;1286;21988;-64
2023/06/17 09:06:34;;;;;;;4.30;2.60;;;;;;;45.12;24.95;99746.23;107758;1274;21993;-71
2023/06/17 09:09:00;;;;;;;5.30;2.10;;;;;;;45.00;24.45;99745.31;108079;1288;21991;-71
2023/06/17 09:11:30;;;;;;;3.90;2.70;;;;;;;44.91;24.99;99745.07;108107;1288;21998;-64
2023/06/17 09:13:58;;;;;;;5.20;2.50;;;;;;;44.95;25.29;99745.70;108146;1288;22099;-71
2023/06/17 09:16:25;;;;;;;6.80;2.90;;;;;;;45.04;27.09;99740.39;108172;1287;22004;-63
2023/06/17 09:18:55;;;;;;;4.30;2.40;;;;;;;45.32;25.47;99737.21;108164;1276;21994;-70
2023/06/17 09:21:22;;;;;;;6.00;2.80;;;;;;;45.56;25.25;99734.77;108209;1288;21999;-64
2023/06/17 09:23:53;;;;;;;5.10;2.70;;;;;;;45.78;24.42;99731.98;108134;1283;21990;-64
2023/06/17 09:26:19;;;;;;;5.00;2.30;;;;;;;45.85;24.60;99732.08;108142;1286;21987;-64
2023/06/17 09:28:45;;;;;;;4.60;2.00;;;;;;;45.92;24.28;99735.05;107752;1288;21991;-70
2023/06/17 09:31:12;;;;;;;3.70;2.30;;;;;;;46.02;24.01;99735.65;108143;1288;21988;-71
2023/06/17 09:33:38;;;;;;;4.80;2.40;;;;;;;46.04;23.80;99733.00;108119;1286;22001;-70
2023/06/17 09:36:04;;;;;;;4.20;2.30;;;;;;;46.16;23.98;99731.73;108158;1288;21996;-64
2023/06/17 09:38:31;;;;;;;4.00;2.30;;;;;;;46.30;23.82;99727.77;108187;1288;21993;-70
2023/06/17 09:40:59;;;;;;;5.60;2.50;;;;;;;46.39;23.57;99723.85;108149;1286;21999;-64
2023/06/17 09:43:26;;;;;;;3.50;2.10;;;;;;;46.45;23.52;99723.61;108154;1288;22029;-70
2023/06/17 09:46:03;;;;;;;4.10;2.20;;;;;;;46.44;23.53;99722.50;108137;1288;21991;-65
2023/06/17 09:48:33;;;;;;;3.80;2.10;;;;;;;46.48;23.08;99723.19;108137;1284;21990;-65
2023/06/17 09:50:59;;;;;;;4.70;2.40;;;;;;;46.64;22.97;99723.27;108149;1288;22000;-64
2023/06/17 09:53:29;;;;;;;5.70;2.20;;;;;;;46.87;22.59;99724.15;108143;1280;21988;-64
2023/06/17 09:55:57;;;;;;;4.60;2.10;;;;;;;47.05;22.46;99719.70;108187;1283;23062;-64
2023/06/17 09:58:31;;;;;;;4.30;2.00;;;;;;;47.14;22.44;99718.31;108166;1286;21996;-70
2023/06/17 10:00:58;;;;;;;5.60;2.30;;;;;;;47.28;22.41;99719.61;108147;1288;21992;-63
2023/06/17 10:03:25;;;;;;;6.30;2.40;;;;;;;47.43;22.12;99716.92;108159;1287;22026;-64
2023/06/17 10:06:03;;;;;;;7.30;3.00;;;;;;;47.52;22.04;99718.73;108213;1277;21991;-70
2023/06/17 10:08:31;;;;;;;5.80;2.50;;;;;;;47.55;21.57;99716.16;108137;1288;23676;-64
2023/06/17 10:10:59;;;;;;;5.30;2.30;;;;;;;47.51;21.74;99711.48;108086;1288;21990;-64
2023/06/17 10:13:25;;;;;;;4.40;2.50;;;;;;;47.56;21.80;99712.55;107860;1288;21995;-69
2023/06/17 10:15:50;;;;;;;5.80;2.40;;;;;;;47.72;21.82;99707.89;107912;1288;22053;-64
2023/06/17 10:18:16;;;;;;;4.20;2.50;;;;;;;47.81;21.67;99709.48;107995;1288;21990;-71
2023/06/17 10:20:42;;;;;;;4.80;2.60;;;;;;;47.78;21.43;99710.88;107884;1288;21994;-64
2023/06/17 10:23:07;;;;;;;5.60;2.20;;;;;;;47.65;21.33;99713.20;107736;1288;21994;-65
2023/06/17 10:25:35;;;;;;;3.90;2.60;;;;;;;47.56;21.28;99710.36;107851;1284;21995;-64
2023/06/17 10:28:03;;;;;;;6.00;2.50;;;;;;;47.55;21.06;99706.36;107817;1288;22106;-63
2023/06/17 10:30:29;;;;;;;4.60;2.50;;;;;;;47.29;20.50;99699.42;108175;1288;21990;-68
2023/06/17 10:32:56;;;;;;;3.80;2.50;;;;;;;47.04;20.65;99699.83;108148;1282;21998;-70
2023/06/17 10:35:21;;;;;;;5.00;2.70;;;;;;;47.06;20.84;99694.31;108174;1288;21992;-64
2023/06/17 10:37:48;;;;;;;3.20;2.10;;;;;;;47.18;20.98;99689.19;108143;1288;21994;-70
2023/06/17 10:40:24;;;;;;;3.60;2.50;;;;;;;47.35;21.01;99689.23;108097;1288;21987;-64
2023/06/17 10:42:55;;;;;;;5.60;2.50;;;;;;;47.56;20.79;99687.42;108125;1288;21989;-64
2023/06/17 10:45:21;;;;;;;3.60;2.40;;;;;;;47.86;20.88;99685.77;108149;1282;22006;-72
2023/06/17 10:47:47;;;;;;;4.50;2.20;;;;;;;48.07;20.65;99680.73;108166;1285;21987;-70
2023/06/17 10:50:12;;;;;;;7.20;2.70;;;;;;;48.10;19.62;99678.65;108024;1281;23667;-72
2023/06/17 10:52:39;;;;;;;4.30;2.80;;;;;;;47.95;20.14;99678.30;107925;1289;21999;-71
2023/06/17 10:55:05;;;;;;;5.10;2.40;;;;;;;47.99;20.20;99677.98;108049;1280;21995;-71
2023/06/17 10:57:35;;;;;;;5.20;2.60;;;;;;;48.17;20.12;99673.25;108096;1286;21985;-71
2023/06/17 11:00:08;;;;;;;4.10;2.40;;;;;;;48.24;19.78;99671.50;108139;1288;21992;-71
2023/06/17 11:02:37;;;;;;;3.70;2.30;;;;;;;48.14;19.82;99669.61;107918;1288;23302;-71
2023/06/17 11:05:05;;;;;;;4.60;2.80;;;;;;;48.00;19.74;99669.15;108111;1288;22069;-71
2023/06/17 11:07:31;;;;;;;3.30;2.40;;;;;;;47.72;19.74;99668.82;108110;1288;23611;-71
2023/06/17 11:09:58;;;;;;;5.40;2.40;;;;;;;47.41;19.50;99669.39;108088;1288;22821;-71
2023/06/17 11:12:24;;;;;;;4.90;2.60;;;;;;;47.17;19.61;99669.14;108076;1288;23625;-71
2023/06/17 11:14:50;;;;;;;3.30;2.50;;;;;;;47.08;19.52;99672.64;108102;1288;21995;-71
2023/06/17 11:17:15;;;;;;;5.30;2.40;;;;;;;46.94;19.57;99672.77;108099;1288;23645;-71
2023/06/17 11:19:41;;;;;;;3.90;2.30;;;;;;;46.71;19.46;99671.97;108087;1280;22004;-70
2023/06/17 11:22:07;;;;;;;4.40;2.70;;;;;;;46.45;19.49;99663.79;108086;1278;22001;-70